หน้าหลัก
METAR-TAF:

METAR-TAF

ท่าอากาศยาน :

เลออาฟวร์, ฝรั่งเศส

ละติจูด: 49-31N, ลองจิจูด: 000-04E, ความสูง: 100 ม.

การสังเกตสภาพอากาศปัจจุบัน

รายงานได้ทำขึ้นเมื่อ 23 นาทีที่แล้ว ณ เวลา 04:00 UTC
ลม 8 นอตจากใต้
อุณหภูมิ 11°C
ความชื้น 82%
ความกดอากาศ 1018 hPa
ทัศนวิสัย 10 กม. หรือมากกว่า
ไม่มีเมฆต่ำกว่า 1,500 ม. และไม่มีเมฆคิวมูโลนิมบัส

METAR: LFOH 130400Z AUTO 19008KT CAVOK 11/08 Q1018

เวลา: 06:23 (04:23 UTC)

การพยากรณ์

รายงานได้ทำขึ้นเมื่อ 17 ชั่วโมงและ 23 นาทีที่แล้ว ณ เวลา 11:00 UTC
การพยากรณ์มีผลตั้งแต่วันที่ 12 ณ เวลา 12 UTC จนถึงวันที่ 13 ณ เวลา 12 UTC
ลม 10 นอตจากตะวันตก/ตะวันตกเฉียงเหนือ
ทัศนวิสัย 10 กม. หรือมากกว่า
ไม่มีเมฆต่ำกว่า 1,500 ม. และไม่มีเมฆคิวมูโลนิมบัส
กำลังกลายเป็น
ตั้งแต่วันที่ 13 ณ เวลา 00 UTC จนถึงวันที่ 13 ณ เวลา 03 UTC
ลม 10 นอตจากใต้/ตะวันตกเฉียงใต้

TAF: LFOH 121100Z 1212/1312 30010KT CAVOK BECMG 1300/1303 21010KT

สังเกตการณ์สภาพอากาศและพยากรณ์อากาศของสนามบินมากกว่า 4000 แห่ง (รายงาน METAR และ TAF).

สถานีที่ดูได้จะแสดงไว้ด้วยจุดสีเหลืองและสีแดงบนแผนที่.

เลื่อนเมาส์ไปเหนือจุดเพื่อดูชื่อสถานี.

แล้วคลิกเพื่อดูสังเกตการณ์และการพยากรณ์สภาพอากาศ.

ในการเปลี่ยนแผนที่: คลิกที่ปุ่มสีเขียวที่มีกากบาทสีดำเพื่อซูมเข้า; ที่ปุ่มสีเขียวที่มีขีดเพื่อซูมออก; หรือที่ลูกศรสีเขียวเพื่อไปยังแผนที่ที่อยู่ติดกัน.


METAR-TAF: